Time;durP1;ratioP1;P1;durP2;ratioP2;P2;SDS_P1;SDS_P2;PMS_P1;PMS_P2;Temp;Humidity;BMP_temperature;BMP_pressure;BME280_temperature;BME280_humidity;BME280_pressure;Samples;Min_cycle;Max_cycle;Signal;HPM_P1;HPM_P2
2022/04/22 00:01:38;;;;;;;26.63;18.03;;;;;;;10.45;100.00;98220.00;5069963;28;20189;-80
2022/04/22 00:04:07;;;;;;;27.63;18.50;;;;;;;10.48;100.00;98216.25;5013414;28;20209;-80
2022/04/22 00:06:36;;;;;;;28.27;19.07;;;;;;;10.60;100.00;98212.63;5011412;28;20282;-80
2022/04/22 00:09:05;;;;;;;29.13;18.70;;;;;;;10.35;100.00;98213.75;5010500;28;20226;-80
2022/04/22 00:11:35;;;;;;;27.53;17.73;;;;;;;10.43;100.00;98203.41;5007349;28;20201;-80
2022/04/22 00:14:08;;;;;;;25.67;18.30;;;;;;;10.39;100.00;98206.38;5006466;28;20672;-80
2022/04/22 00:16:37;;;;;;;26.17;18.60;;;;;;;10.38;100.00;98196.75;5007688;28;20206;-80
2022/04/22 00:19:09;;;;;;;29.27;18.27;;;;;;;10.43;100.00;98200.75;5004837;28;20202;-80
2022/04/22 00:21:41;;;;;;;28.57;18.67;;;;;;;10.41;100.00;98191.22;5024927;28;20196;-80
2022/04/22 00:24:11;;;;;;;28.17;18.33;;;;;;;10.37;100.00;98174.75;4994481;28;20222;-80
2022/04/22 00:26:40;;;;;;;27.30;18.67;;;;;;;10.26;100.00;98180.88;4997759;28;20191;-80
2022/04/22 00:29:11;;;;;;;29.67;19.43;;;;;;;10.15;100.00;98183.50;4995023;28;20219;-80
2022/04/22 00:31:42;;;;;;;30.67;17.93;;;;;;;10.24;100.00;98179.34;4996525;28;20210;-80
2022/04/22 00:34:10;;;;;;;27.47;18.40;;;;;;;10.30;100.00;98184.13;4995665;28;20243;-79
2022/04/22 00:36:39;;;;;;;27.03;17.83;;;;;;;10.25;100.00;98173.91;4942502;28;20205;-81
2022/04/22 00:39:08;;;;;;;26.37;18.03;;;;;;;10.31;100.00;98184.00;4901111;29;20206;-81
2022/04/22 00:41:38;;;;;;;30.23;18.30;;;;;;;10.14;100.00;98179.19;4913677;28;20263;-80
2022/04/22 00:44:10;;;;;;;27.20;17.87;;;;;;;10.12;100.00;98178.44;4954426;28;20215;-80
2022/04/22 00:46:40;;;;;;;27.83;18.20;;;;;;;10.16;100.00;98182.53;4955642;28;20228;-80
2022/04/22 00:49:09;;;;;;;25.87;18.40;;;;;;;10.18;100.00;98164.72;4955730;28;20841;-80
2022/04/22 00:51:38;;;;;;;27.00;17.93;;;;;;;10.14;100.00;98168.59;4957115;28;20201;-80
2022/04/22 00:54:07;;;;;;;24.10;17.73;;;;;;;10.06;100.00;98168.34;4955605;28;20350;-79
2022/04/22 00:56:37;;;;;;;26.53;17.67;;;;;;;10.07;100.00;98164.72;4962891;28;20197;-80
2022/04/22 00:59:06;;;;;;;29.33;17.97;;;;;;;10.04;100.00;98162.34;4986728;28;20207;-80
2022/04/22 01:01:35;;;;;;;26.77;17.57;;;;;;;10.02;100.00;98159.78;5061355;28;20196;-81
2022/04/22 01:09:51;;;;;;;24.87;17.40;;;;;;;10.07;100.00;98150.66;5092112;28;20222;-80
2022/04/22 01:12:20;;;;;;;25.73;17.83;;;;;;;10.03;100.00;98147.41;5094168;28;20211;-80
2022/04/22 01:14:49;;;;;;;24.90;17.20;;;;;;;9.95;100.00;98145.38;5090047;28;20210;-80
2022/04/22 01:17:19;;;;;;;24.63;18.10;;;;;;;9.99;100.00;98135.38;5088323;28;20195;-81
2022/04/22 01:19:50;;;;;;;26.33;17.70;;;;;;;9.95;100.00;98141.91;5084416;28;20188;-80
2022/04/22 01:22:23;;;;;;;27.07;17.60;;;;;;;10.06;100.00;98135.75;5078200;28;20269;-80
2022/04/22 01:24:56;;;;;;;25.07;17.10;;;;;;;10.04;100.00;98141.19;5080069;27;20196;-80
2022/04/22 01:27:30;;;;;;;25.77;17.57;;;;;;;9.96;100.00;98133.84;5071643;28;20191;-80
2022/04/22 01:30:04;;;;;;;25.37;17.87;;;;;;;9.92;100.00;98135.00;5068700;28;20220;-80
2022/04/22 01:32:34;;;;;;;24.40;17.10;;;;;;;10.05;100.00;98126.97;5073457;28;20246;-80
2022/04/22 01:35:03;;;;;;;25.90;17.70;;;;;;;10.06;100.00;98126.00;5074416;28;20252;-80
2022/04/22 01:37:33;;;;;;;25.27;17.50;;;;;;;9.89;100.00;98134.41;4964998;28;20213;-80
2022/04/22 01:40:03;;;;;;;26.70;18.17;;;;;;;9.86;100.00;98130.22;5002521;28;20245;-81
2022/04/22 01:42:31;;;;;;;23.67;17.30;;;;;;;9.87;100.00;98110.75;5007794;28;20222;-80
2022/04/22 01:45:00;;;;;;;23.10;17.47;;;;;;;9.83;100.00;98135.72;5005015;28;20200;-80
2022/04/22 01:47:31;;;;;;;23.87;17.37;;;;;;;9.88;100.00;98116.88;5007780;28;20313;-80
2022/04/22 01:49:59;;;;;;;24.80;17.63;;;;;;;9.65;100.00;98122.16;5007547;28;20218;-81
2022/04/22 01:52:29;;;;;;;24.30;17.93;;;;;;;9.64;100.00;98122.25;5009785;28;20214;-81
2022/04/22 01:54:59;;;;;;;25.07;17.87;;;;;;;9.60;100.00;98119.00;5017299;28;20249;-81
2022/04/22 01:57:28;;;;;;;26.33;18.47;;;;;;;9.68;100.00;98119.25;5049504;28;20227;-81
2022/04/22 01:59:59;;;;;;;25.83;18.03;;;;;;;9.57;100.00;98121.88;5053645;28;20355;-81
2022/04/22 02:02:28;;;;;;;24.10;17.90;;;;;;;9.60;100.00;98123.44;5061584;28;20219;-80
2022/04/22 02:04:57;;;;;;;26.03;17.73;;;;;;;9.55;100.00;98120.31;5075223;28;20283;-80
2022/04/22 02:07:26;;;;;;;26.17;17.63;;;;;;;9.57;100.00;98126.34;5077297;28;20188;-80
2022/04/22 02:09:57;;;;;;;24.47;18.03;;;;;;;9.48;100.00;98127.03;5073652;28;20725;-81
2022/04/22 02:12:29;;;;;;;24.43;17.90;;;;;;;9.49;100.00;98129.56;5074965;28;20250;-80
2022/04/22 02:14:59;;;;;;;22.90;17.03;;;;;;;9.46;100.00;98127.16;5045576;28;20201;-81
2022/04/22 02:17:27;;;;;;;23.90;17.17;;;;;;;9.43;100.00;98127.38;5046169;28;20281;-82
2022/04/22 02:19:56;;;;;;;22.10;16.90;;;;;;;9.51;100.00;98119.69;5054785;28;20201;-81
2022/04/22 02:22:25;;;;;;;26.13;18.50;;;;;;;9.46;100.00;98124.50;5045690;28;20228;-81
2022/04/22 02:24:53;;;;;;;25.13;17.70;;;;;;;9.58;100.00;98120.94;5045354;28;20205;-80
2022/04/22 02:30:11;;;;;;;28.53;18.47;;;;;;;9.50;100.00;98117.19;5011961;28;20225;-81
2022/04/22 02:32:42;;;;;;;25.37;18.57;;;;;;;9.46;100.00;98109.50;4962230;28;20191;-80
2022/04/22 02:35:10;;;;;;;25.07;18.23;;;;;;;9.31;100.00;98108.00;4988931;28;20667;-80
2022/04/22 02:37:38;;;;;;;26.83;18.73;;;;;;;9.34;100.00;98104.28;4914044;29;20210;-81
2022/04/22 02:40:08;;;;;;;25.07;18.33;;;;;;;9.33;100.00;98100.81;4919974;29;20202;-80
2022/04/22 02:45:27;;;;;;;24.77;18.10;;;;;;;9.43;100.00;98090.38;4841183;29;20197;-81
2022/04/22 02:47:56;;;;;;;25.47;18.13;;;;;;;9.37;100.00;98096.16;4855589;29;20227;-81
2022/04/22 02:50:26;;;;;;;22.93;16.63;;;;;;;9.45;100.00;98091.94;4872546;29;20234;-80
2022/04/22 02:52:55;;;;;;;28.03;18.97;;;;;;;9.43;100.00;98093.00;4874657;29;20282;-80
2022/04/22 02:55:23;;;;;;;25.10;18.03;;;;;;;9.32;100.00;98093.00;4897619;28;20227;-80
2022/04/22 02:57:52;;;;;;;24.20;17.13;;;;;;;9.33;100.00;98097.31;4944662;28;20201;-80
2022/04/22 03:00:21;;;;;;;26.13;17.57;;;;;;;9.27;100.00;98089.88;4949084;28;20297;-81
2022/04/22 03:02:54;;;;;;;24.07;17.33;;;;;;;9.30;100.00;98089.63;4955334;28;20196;-79
2022/04/22 03:05:24;;;;;;;22.67;17.07;;;;;;;9.21;100.00;98093.81;5009439;28;20204;-79
2022/04/22 03:07:52;;;;;;;25.03;17.03;;;;;;;9.13;100.00;98085.63;5003904;28;20190;-80
2022/04/22 03:10:21;;;;;;;23.63;17.13;;;;;;;9.10;100.00;98080.56;5001505;28;20229;-80
2022/04/22 03:12:50;;;;;;;23.50;17.37;;;;;;;9.10;100.00;98081.41;5009064;28;20202;-80
2022/04/22 03:15:18;;;;;;;23.10;16.43;;;;;;;9.03;100.00;98077.53;5069908;28;20204;-80
2022/04/22 03:17:48;;;;;;;24.63;17.13;;;;;;;9.04;100.00;98081.88;5073815;28;20215;-80
2022/04/22 03:20:18;;;;;;;23.70;17.67;;;;;;;9.09;100.00;98071.81;5071042;28;20267;-80
2022/04/22 03:22:48;;;;;;;25.60;16.43;;;;;;;9.03;100.00;98074.06;5073567;28;20211;-80
2022/04/22 03:25:20;;;;;;;23.77;17.20;;;;;;;9.02;100.00;98070.56;5073939;28;20220;-80
2022/04/22 03:27:50;;;;;;;25.23;17.30;;;;;;;9.01;100.00;98068.06;5070673;28;20204;-80
2022/04/22 03:30:19;;;;;;;23.27;16.53;;;;;;;8.92;100.00;98071.38;5074609;28;20220;-80
2022/04/22 03:32:48;;;;;;;22.57;17.13;;;;;;;8.89;100.00;98068.03;5068508;28;20200;-80
2022/04/22 03:35:18;;;;;;;21.77;16.00;;;;;;;8.94;100.00;98061.53;5079857;27;20199;-81
2022/04/22 03:37:46;;;;;;;24.97;17.40;;;;;;;8.91;100.00;98057.34;5075620;28;20200;-81
2022/04/22 03:40:15;;;;;;;25.00;16.93;;;;;;;8.87;100.00;98056.72;5070415;28;20189;-80
2022/04/22 03:42:43;;;;;;;24.37;16.20;;;;;;;8.87;100.00;98059.34;5073600;28;20275;-80
2022/04/22 03:45:14;;;;;;;26.30;18.47;;;;;;;8.89;100.00;98052.19;5072862;28;20204;-81
2022/04/22 03:47:42;;;;;;;23.83;16.37;;;;;;;8.94;100.00;98066.81;5073301;28;20216;-81
2022/04/22 03:50:11;;;;;;;21.97;15.93;;;;;;;8.83;100.00;98062.34;5077873;28;20212;-80
2022/04/22 03:52:41;;;;;;;22.60;15.60;;;;;;;8.92;100.00;98056.38;5072743;28;20200;-80
2022/04/22 03:55:10;;;;;;;23.07;15.87;;;;;;;8.86;100.00;98046.28;5071562;28;20193;-80
2022/04/22 04:00:24;;;;;;;21.50;15.57;;;;;;;8.86;100.00;98039.19;5071759;28;20196;-81
2022/04/22 04:02:53;;;;;;;21.20;15.43;;;;;;;8.80;100.00;98046.75;5075845;28;20195;-80
2022/04/22 04:05:22;;;;;;;21.27;15.47;;;;;;;8.71;100.00;98036.88;5077627;28;20200;-80
2022/04/22 04:07:53;;;;;;;21.30;15.20;;;;;;;8.74;100.00;98037.47;5074865;28;20220;-80
2022/04/22 04:16:02;;;;;;;20.80;16.00;;;;;;;8.74;100.00;98045.41;5033272;28;20200;-80
2022/04/22 04:18:32;;;;;;;19.53;15.00;;;;;;;8.71;100.00;98047.44;5028559;28;20200;-80
2022/04/22 04:23:51;;;;;;;20.50;15.10;;;;;;;8.80;100.00;98049.38;5034385;28;20289;-80
2022/04/22 04:26:21;;;;;;;22.50;15.57;;;;;;;8.66;100.00;98044.28;5032138;28;20201;-80
2022/04/22 04:28:50;;;;;;;20.20;15.80;;;;;;;8.69;100.00;98052.00;5028314;28;20194;-80
2022/04/22 04:31:19;;;;;;;23.27;17.47;;;;;;;8.78;100.00;98043.34;5033927;28;20229;-79
2022/04/22 04:33:49;;;;;;;20.50;16.40;;;;;;;8.82;100.00;98052.75;5032336;28;20255;-80
2022/04/22 04:36:19;;;;;;;23.10;16.33;;;;;;;8.90;100.00;98053.03;5033182;28;20186;-80
2022/04/22 04:38:47;;;;;;;19.83;15.90;;;;;;;8.87;100.00;98047.94;5031128;28;20197;-80
2022/04/22 04:41:18;;;;;;;21.37;16.30;;;;;;;9.03;100.00;98042.38;5026980;28;20201;-80
2022/04/22 04:43:48;;;;;;;20.33;16.10;;;;;;;9.05;100.00;98037.81;5046082;28;20652;-81
2022/04/22 04:46:17;;;;;;;21.97;16.47;;;;;;;9.09;100.00;98041.91;5077139;28;20246;-80
2022/04/22 04:48:48;;;;;;;20.47;15.67;;;;;;;9.17;100.00;98039.53;5077278;28;20232;-81
2022/04/22 04:51:16;;;;;;;20.33;16.53;;;;;;;9.15;100.00;98039.63;5071840;28;20270;-80
2022/04/22 04:53:45;;;;;;;19.87;15.47;;;;;;;9.19;100.00;98037.63;5073714;28;20200;-80
2022/04/22 04:56:13;;;;;;;22.03;16.07;;;;;;;9.18;100.00;98030.66;5035638;28;20200;-80
2022/04/22 04:58:43;;;;;;;21.63;16.23;;;;;;;9.24;100.00;98026.69;5074100;28;20636;-80
2022/04/22 05:01:12;;;;;;;18.23;14.90;;;;;;;9.29;100.00;98019.25;5072912;28;20238;-80
2022/04/22 05:03:40;;;;;;;20.73;16.43;;;;;;;9.30;100.00;98018.28;5071373;28;20211;-80
2022/04/22 05:06:11;;;;;;;20.27;15.30;;;;;;;9.41;100.00;98026.22;5077859;28;20201;-80
2022/04/22 05:08:39;;;;;;;17.40;14.17;;;;;;;9.50;100.00;98022.88;5078901;28;20211;-79
2022/04/22 05:11:07;;;;;;;20.27;15.10;;;;;;;9.44;100.00;98025.97;5029082;28;20232;-80
2022/04/22 05:13:36;;;;;;;20.77;15.30;;;;;;;9.45;100.00;98015.28;5034593;28;20196;-81
2022/04/22 05:16:07;;;;;;;19.87;15.27;;;;;;;9.44;100.00;98018.88;5032234;28;20196;-80
2022/04/22 05:18:35;;;;;;;18.40;14.77;;;;;;;9.55;100.00;98023.34;5027992;28;20197;-79
2022/04/22 05:21:03;;;;;;;18.83;14.63;;;;;;;9.54;100.00;98020.81;4974288;28;20207;-80
2022/04/22 05:23:32;;;;;;;17.50;14.37;;;;;;;9.59;100.00;98022.16;4968806;28;20652;-80
2022/04/22 05:26:04;;;;;;;19.40;14.73;;;;;;;9.52;100.00;98028.88;4969486;28;20702;-80
2022/04/22 05:28:33;;;;;;;20.03;15.70;;;;;;;9.52;100.00;98020.94;4938924;29;20209;-80
2022/04/22 05:33:51;;;;;;;18.20;14.57;;;;;;;9.65;100.00;98013.75;4953642;29;20252;-80
2022/04/22 05:36:19;;;;;;;17.80;14.23;;;;;;;9.67;100.00;98017.13;4954130;28;20200;-80
2022/04/22 05:38:48;;;;;;;18.10;14.77;;;;;;;9.81;100.00;98013.38;4969655;28;20326;-80
2022/04/22 05:41:18;;;;;;;18.77;14.87;;;;;;;9.78;100.00;98000.41;5012828;28;20205;-79
2022/04/22 05:43:47;;;;;;;18.43;14.77;;;;;;;9.91;100.00;98002.91;5009718;28;20197;-80
2022/04/22 05:46:17;;;;;;;16.93;14.10;;;;;;;9.89;100.00;98013.59;5027365;28;20643;-80
2022/04/22 05:48:45;;;;;;;17.63;14.20;;;;;;;9.90;100.00;98011.81;5076622;28;20227;-80
2022/04/22 05:51:15;;;;;;;17.27;14.13;;;;;;;9.94;100.00;98003.50;5072009;28;20224;-80
2022/04/22 05:53:47;;;;;;;18.50;13.87;;;;;;;10.08;100.00;97998.91;5069629;28;20197;-80
2022/04/22 05:56:15;;;;;;;16.63;13.70;;;;;;;9.92;100.00;98005.41;5058927;28;20197;-81
2022/04/22 05:58:44;;;;;;;18.60;14.53;;;;;;;9.92;100.00;97999.28;5051914;28;20193;-81
2022/04/22 06:01:15;;;;;;;19.40;14.30;;;;;;;9.93;100.00;97996.50;5048359;28;20201;-81
2022/04/22 06:03:43;;;;;;;17.23;14.27;;;;;;;9.89;100.00;98003.03;5051678;28;20280;-81
2022/04/22 06:06:11;;;;;;;19.63;14.57;;;;;;;10.01;100.00;98004.69;5050872;28;20204;-81
2022/04/22 06:11:27;;;;;;;18.40;14.73;;;;;;;9.87;100.00;97999.66;5051931;28;20303;-81
2022/04/22 06:13:56;;;;;;;18.40;14.20;;;;;;;9.95;100.00;98007.00;5044123;28;20203;-81
2022/04/22 06:16:25;;;;;;;18.30;14.47;;;;;;;10.00;100.00;97989.78;5052009;28;20207;-81
2022/04/22 06:18:54;;;;;;;18.53;13.57;;;;;;;9.96;100.00;98004.22;5075026;28;20196;-80
2022/04/22 06:21:22;;;;;;;21.20;14.20;;;;;;;10.14;100.00;97991.31;5075362;28;20196;-80
2022/04/22 06:23:52;;;;;;;18.87;13.87;;;;;;;10.20;100.00;97990.81;5009767;28;20206;-80
2022/04/22 06:26:20;;;;;;;17.47;13.67;;;;;;;10.35;100.00;97980.81;5009447;28;20194;-81
2022/04/22 06:28:48;;;;;;;16.77;13.67;;;;;;;10.38;100.00;97990.31;5004585;28;20221;-80
2022/04/22 06:31:18;;;;;;;18.63;13.93;;;;;;;10.46;100.00;97985.25;5003716;28;20307;-80
2022/04/22 06:33:47;;;;;;;16.73;13.47;;;;;;;10.67;100.00;97990.56;5009847;28;20199;-81
2022/04/22 06:36:22;;;;;;;18.70;13.90;;;;;;;10.69;100.00;97978.88;5009084;28;20210;-81
2022/04/22 06:38:58;;;;;;;17.90;13.13;;;;;;;10.65;100.00;97981.91;4951006;28;20203;-81
2022/04/22 06:46:58;;;;;;;15.97;12.90;;;;;;;10.80;100.00;97972.66;5011864;28;20198;-80
2022/04/22 06:49:27;;;;;;;17.13;12.03;;;;;;;10.89;100.00;97970.09;5007167;28;20225;-80
2022/04/22 06:51:56;;;;;;;15.10;12.37;;;;;;;10.92;100.00;97965.53;5012350;28;20222;-80
2022/04/22 06:54:27;;;;;;;17.93;12.37;;;;;;;10.91;100.00;97975.28;5008212;28;20194;-81
2022/04/22 06:56:55;;;;;;;16.47;12.67;;;;;;;10.92;100.00;97963.72;5009448;28;20234;-81
2022/04/22 06:59:31;;;;;;;16.60;12.53;;;;;;;10.81;100.00;97971.72;5005231;28;20201;-81
2022/04/22 07:02:00;;;;;;;16.60;12.40;;;;;;;10.87;100.00;97964.06;5005425;28;20252;-81
2022/04/22 07:04:28;;;;;;;17.97;13.03;;;;;;;11.07;100.00;97966.84;4992266;28;20281;-81
2022/04/22 07:06:57;;;;;;;17.57;13.40;;;;;;;11.22;100.00;97957.59;5005475;28;20203;-81
2022/04/22 07:09:27;;;;;;;13.97;11.97;;;;;;;11.29;100.00;97965.84;5025916;28;20643;-81
2022/04/22 07:11:58;;;;;;;15.80;12.63;;;;;;;11.39;100.00;97949.03;5070465;28;20216;-81
2022/04/22 07:14:29;;;;;;;14.73;11.80;;;;;;;11.32;100.00;97955.00;5069650;28;20200;-81
2022/04/22 07:16:57;;;;;;;17.40;12.87;;;;;;;11.48;100.00;97960.63;5071541;28;20196;-81
2022/04/22 07:19:26;;;;;;;16.33;12.80;;;;;;;11.66;100.00;97959.03;5064524;28;20312;-81
2022/04/22 07:21:55;;;;;;;13.27;11.73;;;;;;;11.42;100.00;97971.78;5066055;28;20203;-81
2022/04/22 07:24:24;;;;;;;16.90;13.20;;;;;;;11.53;100.00;97965.53;5066475;28;20659;-81
2022/04/22 07:26:58;;;;;;;17.63;12.43;;;;;;;11.56;100.00;97962.63;5063610;28;20196;-82
2022/04/22 07:29:28;;;;;;;17.17;13.63;;;;;;;11.64;100.00;97960.13;5061854;28;20199;-81
2022/04/22 07:32:04;;;;;;;14.93;12.13;;;;;;;11.88;100.00;97959.84;5064789;28;20249;-81
2022/04/22 07:34:34;;;;;;;14.57;12.03;;;;;;;12.13;100.00;97956.66;5029444;28;20272;-82
2022/04/22 07:37:10;;;;;;;16.63;11.23;;;;;;;12.33;100.00;97958.34;5029956;28;20190;-82
2022/04/22 07:39:43;;;;;;;14.97;12.37;;;;;;;12.19;100.00;97956.13;4954013;28;20200;-82
2022/04/22 07:42:19;;;;;;;15.90;11.60;;;;;;;12.08;100.00;97956.25;4948815;28;20202;-82
2022/04/22 07:47:47;;;;;;;13.93;11.23;;;;;;;12.50;100.00;97948.88;4920785;28;20232;-81
2022/04/22 07:50:18;;;;;;;13.67;11.30;;;;;;;12.49;100.00;97956.97;4951342;28;20207;-82
2022/04/22 07:52:47;;;;;;;15.50;11.47;;;;;;;12.38;100.00;97944.69;4928500;28;20216;-81
2022/04/22 07:55:16;;;;;;;14.90;10.87;;;;;;;12.35;100.00;97954.72;4954970;28;20200;-81
2022/04/22 07:57:46;;;;;;;13.87;11.20;;;;;;;12.60;100.00;97952.34;4979757;28;20210;-81
2022/04/22 08:00:22;;;;;;;12.53;10.67;;;;;;;12.71;100.00;97945.22;5007207;28;20201;-81
2022/04/22 08:02:53;;;;;;;14.73;11.13;;;;;;;12.73;100.00;97946.75;5009150;28;20198;-80
2022/04/22 08:05:22;;;;;;;14.93;11.37;;;;;;;12.85;100.00;97947.44;5010240;28;20198;-81
2022/04/22 08:07:54;;;;;;;14.07;11.10;;;;;;;13.07;100.00;97943.63;5014168;28;20190;-82
2022/04/22 08:10:24;;;;;;;14.23;10.87;;;;;;;12.99;100.00;97954.13;5031848;28;20353;-80
2022/04/22 08:12:59;;;;;;;15.83;11.07;;;;;;;12.95;100.00;97950.09;5081402;28;20371;-81
2022/04/22 08:15:30;;;;;;;14.50;11.63;;;;;;;13.06;100.00;97956.09;5087758;28;20191;-80
2022/04/22 08:17:58;;;;;;;12.60;10.83;;;;;;;13.17;100.00;97950.59;5090012;28;20270;-80
2022/04/22 08:20:32;;;;;;;14.03;11.20;;;;;;;13.34;100.00;97943.72;5045159;28;20196;-80
2022/04/22 08:23:05;;;;;;;13.00;11.07;;;;;;;13.44;100.00;97952.50;5086820;28;20223;-80
2022/04/22 08:25:35;;;;;;;13.17;11.27;;;;;;;13.57;100.00;97956.63;5091212;28;20260;-81
2022/04/22 08:28:06;;;;;;;13.00;10.80;;;;;;;13.57;100.00;97956.63;5077035;28;20254;-80
2022/04/22 08:30:35;;;;;;;15.27;11.50;;;;;;;13.78;100.00;97956.41;5044454;28;20201;-81
2022/04/22 08:33:05;;;;;;;14.60;11.67;;;;;;;13.53;100.00;97949.94;5056770;28;20228;-81
2022/04/22 08:35:39;;;;;;;14.80;11.53;;;;;;;13.72;100.00;97950.69;4995047;28;20286;-81
2022/04/22 08:38:08;;;;;;;13.33;11.10;;;;;;;13.62;100.00;97947.25;4991559;28;20210;-81
2022/04/22 08:40:38;;;;;;;12.07;10.23;;;;;;;13.82;100.00;97955.13;4936976;28;20219;-80
2022/04/22 08:43:13;;;;;;;22.90;16.10;;;;;;;14.18;100.00;97948.88;4858980;29;20213;-80
2022/04/22 08:45:42;;;;;;;11.60;9.70;;;;;;;14.15;100.00;97943.84;4859485;29;20215;-81
2022/04/22 08:50:59;;;;;;;12.83;10.77;;;;;;;14.54;100.00;97933.78;4842355;29;20203;-80
2022/04/22 08:53:30;;;;;;;14.37;10.90;;;;;;;14.36;100.00;97934.72;4849136;29;20232;-80
2022/04/22 08:56:03;;;;;;;13.80;11.63;;;;;;;14.73;100.00;97930.09;4868047;29;20251;-79
2022/04/22 08:58:36;;;;;;;25.53;17.90;;;;;;;14.75;100.00;97921.94;4872840;29;20712;-79
2022/04/22 09:01:06;;;;;;;26.03;18.17;;;;;;;14.66;100.00;97926.38;4908792;29;20223;-80
2022/04/22 09:03:34;;;;;;;17.97;14.47;;;;;;;14.99;100.00;97926.63;4992355;28;20206;-80
2022/04/22 09:06:04;;;;;;;15.63;11.93;;;;;;;15.08;100.00;97923.03;5022061;28;20202;-80
2022/04/22 09:08:33;;;;;;;14.93;11.67;;;;;;;15.14;100.00;97919.72;5031065;28;20228;-81
2022/04/22 09:11:05;;;;;;;14.70;11.77;;;;;;;15.14;100.00;97917.88;5028039;28;20676;-80
2022/04/22 09:13:37;;;;;;;12.97;10.87;;;;;;;15.57;100.00;97918.78;5026065;28;20283;-79
2022/04/22 09:16:06;;;;;;;13.23;11.10;;;;;;;15.30;100.00;97922.47;5061461;28;20197;-80
2022/04/22 09:18:39;;;;;;;13.60;11.10;;;;;;;15.42;100.00;97915.03;5066401;28;20659;-80
2022/04/22 09:21:15;;;;;;;13.83;11.53;;;;;;;15.54;100.00;97912.91;5070174;28;20192;-80
2022/04/22 09:23:45;;;;;;;15.93;11.07;;;;;;;15.93;100.00;97916.78;5067918;28;20207;-80
2022/04/22 09:26:21;;;;;;;13.47;11.40;;;;;;;15.89;100.00;97914.59;4980317;28;20206;-80
2022/04/22 09:29:02;;;;;;;13.93;11.57;;;;;;;15.86;100.00;97906.91;5011678;28;20206;-80
2022/04/22 09:31:31;;;;;;;14.17;11.40;;;;;;;16.08;100.00;97897.44;5010475;28;20198;-80
2022/04/22 09:33:59;;;;;;;13.70;11.03;;;;;;;16.20;100.00;97896.13;5010442;28;20305;-79
2022/04/22 09:44:59;;;;;;;15.00;12.37;;;;;;;16.58;100.00;97886.63;5011576;28;20326;-80
2022/04/22 09:47:29;;;;;;;13.97;11.97;;;;;;;16.95;95.93;97878.13;5010182;28;20215;-80
2022/04/22 09:49:59;;;;;;;16.13;13.00;;;;;;;16.86;95.98;97874.63;5015853;28;20362;-80
2022/04/22 09:52:28;;;;;;;14.60;12.33;;;;;;;16.86;97.79;97882.63;5061060;27;20223;-80
2022/04/22 09:54:59;;;;;;;15.93;13.63;;;;;;;17.08;95.32;97877.56;5052984;28;20676;-80
2022/04/22 09:57:52;;;;;;;18.57;14.17;;;;;;;17.20;95.32;97872.72;5032554;28;20205;-80
2022/04/22 10:00:24;;;;;;;17.50;15.03;;;;;;;17.11;94.57;97872.75;5014772;28;20194;-80
2022/04/22 10:02:54;;;;;;;16.03;14.00;;;;;;;17.45;93.46;97880.47;4993069;28;20281;-80
2022/04/22 10:05:24;;;;;;;16.33;14.60;;;;;;;17.19;92.35;97871.88;4990489;28;20202;-80
2022/04/22 10:07:53;;;;;;;17.73;13.80;;;;;;;17.50;90.18;97866.59;4990454;28;20203;-80
2022/04/22 10:10:26;;;;;;;15.87;13.90;;;;;;;17.63;93.71;97855.31;4987603;28;20199;-81
2022/04/22 10:12:58;;;;;;;20.23;14.70;;;;;;;17.60;93.30;97859.19;4992890;28;20274;-80
2022/04/22 10:15:39;;;;;;;15.20;13.60;;;;;;;17.70;90.59;97849.13;5002001;28;20233;-81
2022/04/22 10:18:09;;;;;;;18.57;14.03;;;;;;;17.24;89.57;97857.97;5034328;28;20210;-80
2022/04/22 10:20:41;;;;;;;17.40;15.20;;;;;;;17.31;92.58;97856.28;5041298;28;20280;-80
2022/04/22 10:23:10;;;;;;;16.97;15.17;;;;;;;17.35;91.50;97847.72;5053930;28;20200;-81
2022/04/22 10:25:40;;;;;;;17.83;13.50;;;;;;;17.68;91.42;97844.91;5055427;28;20197;-81
2022/04/22 10:28:11;;;;;;;16.03;13.93;;;;;;;17.96;88.45;97842.63;4992504;28;20279;-80
2022/04/22 10:30:44;;;;;;;16.53;13.83;;;;;;;17.77;89.96;97843.91;4990830;28;20230;-80
2022/04/22 10:33:13;;;;;;;19.57;14.60;;;;;;;17.87;89.21;97846.34;4990074;28;20241;-80
2022/04/22 10:35:43;;;;;;;18.43;14.57;;;;;;;17.68;86.77;97831.53;4989956;28;20206;-80
2022/04/22 10:38:34;;;;;;;16.67;14.00;;;;;;;17.86;85.08;97840.16;4985143;28;20187;-80
2022/04/22 10:41:05;;;;;;;17.07;13.20;;;;;;;18.06;82.91;97834.34;4990948;28;20203;-80
2022/04/22 10:43:35;;;;;;;16.20;14.50;;;;;;;18.50;82.78;97824.59;4986484;28;20203;-80
2022/04/22 10:49:13;;;;;;;17.63;14.73;;;;;;;18.86;80.89;97823.97;5074431;28;20224;-80
2022/04/22 10:52:09;;;;;;;17.27;14.83;;;;;;;18.60;79.41;97830.53;5087810;28;20277;-80
2022/04/22 10:55:10;;;;;;;18.07;14.93;;;;;;;18.92;79.84;97823.25;5056326;28;20227;-80
2022/04/22 10:57:42;;;;;;;16.57;14.40;;;;;;;18.64;82.44;97814.94;5086347;28;20241;-81
2022/04/22 11:00:30;;;;;;;17.33;15.23;;;;;;;18.42;83.49;97813.09;5013347;28;20190;-81
2022/04/22 11:03:20;;;;;;;15.73;14.07;;;;;;;19.08;80.13;97816.84;5009802;28;20220;-81
2022/04/22 11:05:55;;;;;;;15.90;13.97;;;;;;;18.84;80.43;97807.22;5008802;28;20257;-80
2022/04/22 11:08:37;;;;;;;16.53;13.87;;;;;;;18.97;81.74;97809.25;4975617;28;20300;-81
2022/04/22 11:11:19;;;;;;;16.57;14.03;;;;;;;19.39;76.30;97813.94;4972904;28;20223;-81
2022/04/22 11:13:50;;;;;;;15.93;14.23;;;;;;;19.17;76.10;97811.19;4894184;29;20270;-82
2022/04/22 11:16:30;;;;;;;15.57;13.50;;;;;;;18.86;80.77;97806.00;4893970;29;20206;-81
2022/04/22 11:19:27;;;;;;;17.87;14.57;;;;;;;18.48;79.34;97809.72;4938079;29;20207;-81
2022/04/22 11:21:58;;;;;;;18.87;16.27;;;;;;;18.66;79.46;97796.84;4947161;29;20283;-81
2022/04/22 11:24:28;;;;;;;13.90;12.47;;;;;;;19.06;78.54;97803.63;4954082;28;20196;-81
2022/04/22 11:27:06;;;;;;;15.43;13.30;;;;;;;18.92;76.55;97798.25;4955281;29;20215;-81
2022/04/22 11:29:34;;;;;;;15.10;13.50;;;;;;;19.14;75.43;97803.53;4949795;29;20192;-81
2022/04/22 11:32:08;;;;;;;15.90;12.93;;;;;;;19.64;75.88;97796.53;4994934;28;20189;-80
2022/04/22 11:35:00;;;;;;;14.40;12.90;;;;;;;19.84;75.74;97795.94;5025323;28;20230;-81
2022/04/22 11:37:30;;;;;;;14.77;13.20;;;;;;;19.63;75.53;97796.72;5023066;28;20255;-82
2022/04/22 11:39:58;;;;;;;14.37;12.57;;;;;;;19.45;74.79;97797.09;4979283;28;20202;-81
2022/04/22 11:42:29;;;;;;;14.27;12.77;;;;;;;19.64;74.26;97798.41;4990839;28;20310;-82
2022/04/22 11:45:09;;;;;;;13.63;12.23;;;;;;;19.67;72.60;97792.63;4957461;28;20194;-81
2022/04/22 11:47:40;;;;;;;14.00;12.50;;;;;;;19.82;70.89;97784.53;4987788;28;20226;-81
2022/04/22 11:50:20;;;;;;;14.17;12.70;;;;;;;19.94;70.43;97789.22;4992118;28;20195;-81
2022/04/22 11:52:56;;;;;;;15.77;12.83;;;;;;;19.66;70.25;97782.91;4988927;28;20213;-81
2022/04/22 11:55:25;;;;;;;14.13;12.73;;;;;;;19.29;69.50;97784.72;4988676;28;20222;-81
2022/04/22 11:57:53;;;;;;;12.73;11.47;;;;;;;19.58;72.05;97783.84;5014732;28;20193;-80
2022/04/22 12:06:04;;;;;;;12.03;10.80;;;;;;;20.64;65.04;97770.59;5057298;28;20246;-81
2022/04/22 12:08:34;;;;;;;12.73;11.43;;;;;;;20.04;66.89;97771.94;5056847;28;20211;-81
2022/04/22 12:11:02;;;;;;;12.77;10.83;;;;;;;20.65;65.32;97766.88;5061465;28;20195;-78
2022/04/22 12:13:31;;;;;;;15.73;12.27;;;;;;;20.65;65.06;97764.19;5060569;28;20200;-81
2022/04/22 12:16:03;;;;;;;12.77;11.33;;;;;;;20.70;62.95;97759.06;5056513;28;20628;-81
2022/04/22 12:18:34;;;;;;;13.10;11.30;;;;;;;20.82;61.91;97762.88;5051137;28;20209;-81
2022/04/22 12:21:05;;;;;;;14.40;11.33;;;;;;;21.34;62.00;97761.53;5052306;28;20640;-81
2022/04/22 12:23:36;;;;;;;18.53;12.43;;;;;;;21.22;60.95;97757.69;5052330;28;20219;-81
2022/04/22 12:26:05;;;;;;;13.57;12.03;;;;;;;20.55;62.25;97764.53;5019647;28;20220;-81
2022/04/22 12:28:33;;;;;;;13.40;11.50;;;;;;;20.67;62.17;97754.91;5011047;28;20218;-81